Time;durP1;ratioP1;P1;durP2;ratioP2;P2;SDS_P1;SDS_P2;PMS_P1;PMS_P2;Temp;Humidity;BMP_temperature;BMP_pressure;BME280_temperature;BME280_humidity;BME280_pressure;Samples;Min_cycle;Max_cycle;Signal;HPM_P1;HPM_P2
2022/04/15 00:00:20;;;;;;;10.52;4.12;;;;;;;7.13;57.78;100273.53;4451488;32;33892;-60
2022/04/15 00:02:48;;;;;;;9.70;3.80;;;;;;;7.21;57.56;100274.91;4454892;32;33743;-65
2022/04/15 00:08:10;;;;;;;9.02;3.42;;;;;;;7.49;57.44;100258.66;4450710;32;33389;-61
2022/04/15 00:10:45;;;;;;;9.65;3.67;;;;;;;7.84;54.32;100267.75;4455037;32;34715;-63
2022/04/15 00:13:14;;;;;;;;;;;;;;;7.94;53.62;100264.97;4453506;32;33980;-61
2022/04/15 00:15:41;;;;;;;7.93;3.75;;;;;;;7.71;54.18;100260.03;4440535;32;34763;-62
2022/04/15 00:18:09;;;;;;;8.05;3.10;;;;;;;7.72;53.63;100251.50;4454422;32;34232;-62
2022/04/15 00:20:36;;;;;;;7.82;3.50;;;;;;;7.68;53.72;100256.47;4454315;32;34729;-61
2022/04/15 00:23:04;;;;;;;9.80;3.75;;;;;;;7.56;54.09;100253.13;4455257;32;34792;-62
2022/04/15 00:25:32;;;;;;;10.15;4.35;;;;;;;7.23;55.68;100250.16;4452564;32;32446;-64
2022/04/15 00:27:59;;;;;;;8.77;4.18;;;;;;;7.27;56.34;100252.12;4454739;32;34128;-61
2022/04/15 00:30:27;;;;;;;12.65;4.20;;;;;;;7.28;56.49;100253.94;4452402;32;34741;-63
2022/04/15 00:32:54;;;;;;;8.35;4.05;;;;;;;7.13;57.97;100257.16;4454302;32;33431;-64
2022/04/15 00:35:22;;;;;;;9.43;4.30;;;;;;;7.06;57.37;100255.88;4453796;32;33504;-63
2022/04/15 00:37:50;;;;;;;10.30;3.75;;;;;;;6.98;58.74;100251.91;4454802;32;33479;-61
2022/04/15 00:40:17;;;;;;;8.35;3.55;;;;;;;7.02;58.12;100253.91;4454578;32;33645;-63
2022/04/15 00:42:45;;;;;;;6.97;3.15;;;;;;;7.14;56.39;100246.06;4426124;32;33930;-61
2022/04/15 00:45:12;;;;;;;7.80;3.28;;;;;;;7.18;55.31;100236.06;4454445;32;33664;-63
2022/04/15 00:47:54;;;;;;;8.32;3.37;;;;;;;7.17;55.03;100234.28;4454486;32;33889;-63
2022/04/15 00:50:24;;;;;;;7.55;3.22;;;;;;;7.09;55.67;100240.63;4440083;32;34714;-63
2022/04/15 00:52:53;;;;;;;6.85;3.17;;;;;;;7.12;55.40;100230.50;4454322;32;34309;-64
2022/04/15 00:55:22;;;;;;;8.30;3.15;;;;;;;7.26;54.56;100237.47;4454414;32;33608;-62
2022/04/15 00:57:51;;;;;;;6.65;2.97;;;;;;;7.76;53.92;100236.31;4440526;32;33410;-61
2022/04/15 01:00:19;;;;;;;7.00;3.60;;;;;;;8.39;51.56;100226.41;4452405;32;33417;-61
2022/04/15 01:02:49;;;;;;;9.75;3.20;;;;;;;8.41;52.50;100228.31;4439998;32;33832;-60
2022/04/15 01:05:17;;;;;;;10.35;3.65;;;;;;;8.81;52.82;100229.78;4453435;32;33575;-62
2022/04/15 01:07:49;;;;;;;7.10;3.30;;;;;;;9.63;50.74;100228.41;4454195;32;33226;-61
2022/04/15 01:10:19;;;;;;;9.73;3.75;;;;;;;8.29;53.36;100235.28;4452701;32;34612;-63
2022/04/15 01:12:53;;;;;;;7.85;3.20;;;;;;;8.66;53.79;100224.59;4452549;32;33097;-62
2022/04/15 01:15:41;;;;;;;7.55;3.37;;;;;;;7.67;54.88;100218.59;4453036;32;33923;-62
2022/04/15 01:18:09;;;;;;;10.95;3.50;;;;;;;7.45;56.80;100220.59;4441270;32;34252;-61
2022/04/15 01:20:37;;;;;;;6.78;3.62;;;;;;;7.06;57.14;100217.25;4439922;32;32240;-61
2022/04/15 01:23:08;;;;;;;7.20;3.53;;;;;;;6.96;57.43;100212.28;4433828;32;33809;-61
2022/04/15 01:25:37;;;;;;;9.50;3.35;;;;;;;6.76;57.51;100214.44;4433707;32;33696;-63
2022/04/15 01:28:05;;;;;;;9.05;3.70;;;;;;;6.69;57.59;100217.41;4452207;32;33525;-61
2022/04/15 01:30:33;;;;;;;8.90;4.25;;;;;;;6.40;60.87;100216.31;4454291;32;33779;-61
2022/04/15 01:33:03;;;;;;;7.30;3.60;;;;;;;6.39;62.70;100217.09;4453829;32;33364;-60
2022/04/15 01:35:33;;;;;;;8.05;3.47;;;;;;;6.72;61.56;100207.28;4451296;32;34470;-64
2022/04/15 01:38:02;;;;;;;6.28;3.75;;;;;;;6.49;60.38;100204.09;4453361;32;33138;-61
2022/04/15 01:40:30;;;;;;;9.40;3.70;;;;;;;6.36;62.02;100223.75;4453133;32;33572;-63
2022/04/15 01:42:58;;;;;;;8.45;3.65;;;;;;;6.44;61.73;100205.44;4446285;32;33184;-62
2022/04/15 01:45:28;;;;;;;8.82;3.58;;;;;;;6.55;60.46;100223.28;4436111;32;33646;-62
2022/04/15 01:47:55;;;;;;;9.93;3.40;;;;;;;6.52;58.52;100218.81;4433622;32;33285;-63
2022/04/15 01:50:23;;;;;;;6.30;3.17;;;;;;;6.43;58.34;100219.13;4447616;32;34451;-63
2022/04/15 01:52:51;;;;;;;6.20;2.83;;;;;;;6.44;58.61;100204.56;4454179;32;33713;-62
2022/04/15 01:55:18;;;;;;;8.55;3.53;;;;;;;6.18;58.82;100211.41;4454481;32;33829;-61
2022/04/15 01:57:46;;;;;;;7.85;3.75;;;;;;;5.97;59.77;100220.19;4452287;32;34106;-63
2022/04/15 02:00:14;;;;;;;8.35;3.87;;;;;;;6.24;59.77;100210.94;4451518;32;33755;-63
2022/04/15 02:02:42;;;;;;;6.45;3.22;;;;;;;5.95;60.35;100207.25;4451982;32;33932;-61
2022/04/15 02:05:09;;;;;;;7.55;3.47;;;;;;;6.06;60.61;100206.28;4453297;32;33895;-63
2022/04/15 02:07:36;;;;;;;9.02;4.45;;;;;;;6.10;60.46;100203.16;4450070;32;98842;-63
2022/04/15 02:10:06;;;;;;;8.95;3.65;;;;;;;5.74;62.02;100197.97;4453904;32;33747;-60
2022/04/15 02:12:34;;;;;;;10.73;3.62;;;;;;;5.86;60.25;100204.00;4439412;32;33960;-63
2022/04/15 02:15:02;;;;;;;7.80;3.50;;;;;;;6.03;58.77;100202.63;4440136;32;34560;-63
2022/04/15 02:17:30;;;;;;;8.32;3.50;;;;;;;6.34;57.55;100204.72;4454346;32;33617;-63
2022/04/15 02:19:57;;;;;;;8.10;3.65;;;;;;;6.49;57.17;100198.94;4454623;32;33768;-64
2022/04/15 02:22:25;;;;;;;6.80;2.92;;;;;;;6.58;55.34;100192.59;4452975;32;34533;-60
2022/04/15 02:24:53;;;;;;;9.25;3.47;;;;;;;6.67;54.84;100198.38;4454098;32;33900;-63
2022/04/15 02:27:20;;;;;;;8.13;3.75;;;;;;;6.54;57.98;100195.78;4453690;32;33493;-61
2022/04/15 02:29:48;;;;;;;8.32;3.60;;;;;;;6.40;56.97;100198.31;4454433;32;34005;-64
2022/04/15 02:32:15;;;;;;;8.00;3.28;;;;;;;6.53;55.90;100191.41;4454511;32;33868;-62
2022/04/15 02:34:43;;;;;;;8.68;3.30;;;;;;;6.60;55.68;100193.59;4454602;32;33931;-62
2022/04/15 02:37:10;;;;;;;6.70;3.28;;;;;;;6.35;57.55;100197.09;4453703;32;33374;-62
2022/04/15 02:39:38;;;;;;;7.78;2.90;;;;;;;6.35;57.83;100193.63;4453397;32;34719;-61
2022/04/15 02:42:05;;;;;;;8.45;3.12;;;;;;;6.47;57.75;100185.06;4451956;32;34407;-64
2022/04/15 02:44:32;;;;;;;7.78;3.58;;;;;;;6.73;56.62;100182.44;4452470;32;34334;-62
2022/04/15 02:47:00;;;;;;;9.27;3.42;;;;;;;7.74;54.46;100182.87;4450892;32;33236;-60
2022/04/15 02:49:28;;;;;;;7.68;3.12;;;;;;;8.45;52.48;100178.63;4434802;32;33261;-62
2022/04/15 02:51:56;;;;;;;8.65;3.80;;;;;;;8.01;55.10;100179.41;4452503;32;34786;-61
2022/04/15 02:54:24;;;;;;;6.53;3.65;;;;;;;7.35;55.28;100182.16;4452153;32;33945;-62
2022/04/15 02:56:51;;;;;;;6.53;3.37;;;;;;;7.80;54.33;100183.25;4452890;32;33336;-63
2022/04/15 02:59:20;;;;;;;6.40;3.33;;;;;;;7.36;55.81;100183.91;4453254;32;33568;-63
2022/04/15 03:01:49;;;;;;;7.82;3.72;;;;;;;6.82;56.80;100178.78;4452207;32;33852;-61
2022/04/15 03:04:17;;;;;;;9.45;3.95;;;;;;;6.48;56.87;100181.69;4453369;32;33910;-63
2022/04/15 03:06:44;;;;;;;7.62;4.15;;;;;;;6.07;58.88;100192.66;4438302;32;30653;-61
2022/04/15 03:09:12;;;;;;;10.18;4.12;;;;;;;5.86;60.22;100188.56;4452943;32;32625;-62
2022/04/15 03:11:40;;;;;;;11.32;4.68;;;;;;;5.93;61.52;100193.34;4453262;32;33997;-61
2022/04/15 03:14:07;;;;;;;9.20;4.32;;;;;;;5.97;62.29;100190.25;4452649;32;33785;-60
2022/04/15 03:16:36;;;;;;;11.02;4.43;;;;;;;5.81;63.16;100192.47;4452981;32;33397;-64
2022/04/15 03:19:03;;;;;;;9.95;4.32;;;;;;;5.98;60.20;100186.88;4452100;32;33777;-63
2022/04/15 03:21:31;;;;;;;7.97;4.57;;;;;;;6.07;60.16;100192.66;4453386;32;34699;-60
2022/04/15 03:23:58;;;;;;;9.73;4.57;;;;;;;5.77;62.14;100190.47;4439582;32;33312;-62
2022/04/15 03:26:26;;;;;;;9.88;4.25;;;;;;;5.62;61.90;100191.22;4438530;32;32867;-63
2022/04/15 03:28:53;;;;;;;8.60;4.50;;;;;;;5.58;60.95;100193.44;4449429;32;33781;-62
2022/04/15 03:31:21;;;;;;;9.82;4.12;;;;;;;5.53;60.85;100195.69;4453589;32;34573;-62
2022/04/15 03:33:49;;;;;;;8.45;4.00;;;;;;;5.74;60.07;100200.53;4454304;32;33950;-63
2022/04/15 03:36:16;;;;;;;6.37;3.67;;;;;;;5.81;59.43;100189.91;4449042;32;33803;-61
2022/04/15 03:38:44;;;;;;;8.18;4.10;;;;;;;6.03;59.11;100188.09;4452384;32;34746;-63
2022/04/15 03:41:12;;;;;;;8.25;3.78;;;;;;;6.05;59.06;100189.09;4452983;32;33973;-61
2022/04/15 03:43:40;;;;;;;8.45;4.05;;;;;;;6.07;59.80;100187.50;4446395;32;34346;-62
2022/04/15 03:46:08;;;;;;;11.65;5.03;;;;;;;6.25;58.86;100182.72;4446393;32;33875;-62
2022/04/15 03:48:36;;;;;;;8.18;4.03;;;;;;;6.10;61.46;100179.09;4435599;32;32266;-62
2022/04/15 03:51:03;;;;;;;10.95;4.12;;;;;;;6.63;59.39;100173.22;4448589;32;33601;-63
2022/04/15 03:53:31;;;;;;;10.77;5.62;;;;;;;6.74;57.70;100173.91;4449260;32;34224;-62
2022/04/15 03:55:58;;;;;;;10.35;4.68;;;;;;;6.73;56.73;100162.75;4452501;32;33942;-62
2022/04/15 03:58:26;;;;;;;9.25;4.60;;;;;;;6.81;58.69;100164.12;4439024;32;33760;-62
2022/04/15 04:00:53;;;;;;;7.97;4.45;;;;;;;6.94;59.61;100159.78;4449705;32;33671;-64
2022/04/15 04:03:21;;;;;;;8.82;4.50;;;;;;;7.52;56.91;100160.91;4448394;32;34129;-61
2022/04/15 04:05:49;;;;;;;14.00;4.82;;;;;;;7.76;56.66;100160.66;4431557;32;31200;-63
2022/04/15 04:08:17;;;;;;;9.20;4.47;;;;;;;7.87;56.74;100162.19;4446951;32;34607;-63
2022/04/15 04:10:44;;;;;;;7.68;3.80;;;;;;;8.65;53.90;100161.75;4449654;32;33702;-64
2022/04/15 04:13:12;;;;;;;9.88;4.40;;;;;;;8.54;53.90;100167.09;4451482;32;34007;-61
2022/04/15 04:15:39;;;;;;;8.82;3.90;;;;;;;8.91;52.44;100164.06;4449447;32;34175;-63
2022/04/15 04:18:07;;;;;;;8.45;3.85;;;;;;;9.21;50.57;100170.03;4451018;32;34399;-64
2022/04/15 04:20:34;;;;;;;5.50;3.47;;;;;;;8.63;52.44;100158.19;4449141;32;33489;-61
2022/04/15 04:23:02;;;;;;;7.78;3.80;;;;;;;6.98;56.04;100164.34;4450948;32;33818;-62
2022/04/15 04:25:30;;;;;;;10.88;4.40;;;;;;;6.21;59.36;100180.72;4450059;32;33438;-64
2022/04/15 04:27:58;;;;;;;10.02;4.37;;;;;;;5.78;61.23;100171.72;4439332;32;33994;-64
2022/04/15 04:30:25;;;;;;;11.43;4.87;;;;;;;5.95;62.02;100176.37;4452734;32;33570;-61
2022/04/15 04:32:53;;;;;;;11.57;5.05;;;;;;;5.93;62.15;100182.16;4437068;32;33869;-61
2022/04/15 04:35:21;;;;;;;9.60;4.62;;;;;;;5.74;64.11;100179.97;4454055;32;33458;-61
2022/04/15 04:37:49;;;;;;;10.68;4.37;;;;;;;6.03;61.94;100182.94;4451853;32;32287;-63
2022/04/15 04:40:17;;;;;;;12.50;4.75;;;;;;;6.96;59.55;100178.81;4454076;32;34688;-64
2022/04/15 04:42:45;;;;;;;9.10;4.50;;;;;;;6.63;60.97;100186.09;4450747;32;34721;-62
2022/04/15 04:45:12;;;;;;;9.32;4.37;;;;;;;6.57;59.91;100190.84;4437270;32;33476;-62
2022/04/15 04:47:42;;;;;;;11.45;4.90;;;;;;;6.43;60.33;100185.66;4425937;32;32462;-62
2022/04/15 04:50:10;;;;;;;8.93;4.80;;;;;;;6.57;59.55;100191.72;4452652;32;34311;-60
2022/04/15 04:52:38;;;;;;;9.13;4.18;;;;;;;6.46;60.08;100183.28;4453190;32;33538;-61
2022/04/15 04:55:07;;;;;;;11.05;4.18;;;;;;;6.99;59.19;100186.72;4449980;32;34189;-64
2022/04/15 04:57:35;;;;;;;10.18;4.22;;;;;;;6.92;58.49;100185.44;4453849;32;34363;-63
2022/04/15 05:00:03;;;;;;;9.32;4.47;;;;;;;7.05;57.91;100177.72;4452590;32;34556;-61
2022/04/15 05:02:30;;;;;;;8.85;4.50;;;;;;;7.07;57.46;100191.59;4451628;32;33980;-63
2022/04/15 05:04:58;;;;;;;9.23;4.50;;;;;;;7.11;57.44;100195.25;4452164;32;33957;-63
2022/04/15 05:07:25;;;;;;;9.75;4.87;;;;;;;7.42;57.01;100189.50;4454176;32;33794;-64
2022/04/15 05:09:53;;;;;;;9.77;4.57;;;;;;;7.57;56.29;100190.47;4454579;32;33939;-61
2022/04/15 05:12:21;;;;;;;15.30;4.57;;;;;;;8.03;55.03;100188.12;4454196;32;33668;-61
2022/04/15 05:14:48;;;;;;;9.68;6.03;;;;;;;8.68;53.54;100193.72;4453312;32;33039;-64
2022/04/15 05:17:16;;;;;;;9.98;5.03;;;;;;;9.62;52.26;100190.44;4426522;32;33981;-62
2022/04/15 05:19:44;;;;;;;11.75;4.90;;;;;;;9.29;53.81;100198.91;4453770;32;33951;-61
2022/04/15 05:22:12;;;;;;;9.48;4.50;;;;;;;7.83;58.01;100198.94;4452899;32;34653;-61
2022/04/15 05:24:40;;;;;;;11.82;4.90;;;;;;;7.72;58.77;100205.97;4452295;32;33123;-62
2022/04/15 05:27:08;;;;;;;11.52;4.78;;;;;;;7.93;57.86;100211.59;4451813;32;34508;-62
2022/04/15 05:29:35;;;;;;;9.05;4.40;;;;;;;8.15;57.66;100210.31;4440558;32;33576;-62
2022/04/15 05:32:03;;;;;;;11.10;4.45;;;;;;;8.54;56.32;100204.13;4437668;32;32429;-63
2022/04/15 05:34:31;;;;;;;18.77;4.37;;;;;;;8.24;56.96;100203.13;4451763;32;34275;-61
2022/04/15 05:36:58;;;;;;;14.40;4.55;;;;;;;8.31;57.22;100209.56;4452288;32;33484;-62
2022/04/15 05:39:26;;;;;;;9.10;3.92;;;;;;;8.22;56.89;100202.16;4437339;32;34719;-64
2022/04/15 05:41:53;;;;;;;11.88;4.85;;;;;;;8.51;55.70;100198.75;4451695;32;34511;-64
2022/04/15 05:44:21;;;;;;;8.43;4.75;;;;;;;8.65;55.29;100197.00;4452907;32;33455;-61
2022/04/15 05:46:48;;;;;;;11.18;4.72;;;;;;;8.85;54.93;100188.72;4450710;32;34004;-63
2022/04/15 05:49:17;;;;;;;10.00;4.93;;;;;;;9.23;54.05;100200.38;4447440;32;34537;-62
2022/04/15 05:51:48;;;;;;;10.32;5.87;;;;;;;9.17;53.61;100184.47;4448137;32;34418;-61
2022/04/15 05:54:16;;;;;;;9.90;5.32;;;;;;;9.07;55.00;100187.34;4449747;32;33187;-64
2022/04/15 05:56:43;;;;;;;8.18;5.10;;;;;;;9.77;53.20;100194.66;4450240;32;33658;-61
2022/04/15 05:59:10;;;;;;;9.27;4.72;;;;;;;10.52;51.26;100184.81;4453166;32;34155;-64
2022/04/15 06:01:38;;;;;;;13.25;4.97;;;;;;;11.18;50.15;100180.31;4438123;32;33791;-65
2022/04/15 06:04:06;;;;;;;9.35;5.62;;;;;;;10.92;51.24;100187.72;4453429;32;33303;-63
2022/04/15 06:06:34;;;;;;;8.82;5.50;;;;;;;11.08;50.57;100183.28;4450639;32;33784;-65
2022/04/15 06:09:01;;;;;;;10.80;4.50;;;;;;;12.02;49.05;100198.97;4452453;32;33634;-61
2022/04/15 06:11:29;;;;;;;15.10;5.55;;;;;;;12.52;46.26;100194.25;4451817;32;34542;-61
2022/04/15 06:13:57;;;;;;;13.02;5.00;;;;;;;12.52;46.45;100194.25;4451782;32;34203;-62
2022/04/15 06:16:31;;;;;;;10.32;5.85;;;;;;;12.81;45.12;100192.00;4452603;32;34726;-65
2022/04/15 06:18:59;;;;;;;8.38;4.18;;;;;;;12.69;46.00;100198.47;4453051;32;34722;-64
2022/04/15 06:21:47;;;;;;;37.25;22.73;;;;;;;12.60;45.72;100187.66;4453764;32;33268;-62
2022/04/15 06:24:15;;;;;;;10.75;4.82;;;;;;;12.82;45.70;100193.75;4452662;32;34986;-62
2022/04/15 06:26:42;;;;;;;17.25;8.32;;;;;;;13.29;44.13;100193.13;4438993;32;33576;-62
2022/04/15 06:29:15;;;;;;;9.10;5.62;;;;;;;13.16;44.22;100196.06;4448487;32;34594;-63
2022/04/15 06:31:43;;;;;;;13.48;5.70;;;;;;;13.27;44.04;100199.06;4453779;32;33943;-63
2022/04/15 06:34:11;;;;;;;9.35;5.22;;;;;;;13.30;43.51;100199.25;4452133;32;33360;-61
2022/04/15 06:36:39;;;;;;;14.40;5.80;;;;;;;12.91;43.57;100194.16;4451057;32;33539;-62
2022/04/15 06:39:07;;;;;;;13.35;5.62;;;;;;;12.11;40.35;100185.50;4452379;32;34671;-63
2022/04/15 06:41:34;;;;;;;10.80;5.55;;;;;;;12.25;39.46;100189.63;4453573;32;34370;-62
2022/04/15 06:44:02;;;;;;;12.82;5.70;;;;;;;12.71;40.88;100181.22;4452291;32;33040;-63
2022/04/15 06:46:30;;;;;;;13.25;6.22;;;;;;;13.07;41.05;100186.16;4452510;32;33803;-63
2022/04/15 06:48:57;;;;;;;12.32;6.15;;;;;;;13.46;40.53;100175.63;4438661;32;34903;-62
2022/04/15 06:51:25;;;;;;;12.00;6.35;;;;;;;13.83;39.54;100176.09;4450958;32;33611;-64
2022/04/15 06:53:53;;;;;;;11.80;6.40;;;;;;;13.96;38.72;100171.44;4452630;32;33411;-64
2022/04/15 06:56:20;;;;;;;13.60;6.40;;;;;;;13.89;40.99;100169.44;4452316;32;33686;-63
2022/04/15 06:58:48;;;;;;;14.48;6.97;;;;;;;14.43;40.16;100162.66;4451869;32;33976;-63
2022/04/15 07:01:16;;;;;;;9.88;5.50;;;;;;;15.24;39.29;100174.94;4438921;32;33650;-63
2022/04/15 07:03:44;;;;;;;11.10;6.20;;;;;;;15.52;37.14;100172.34;4438613;32;33528;-61
2022/04/15 07:06:11;;;;;;;11.93;6.22;;;;;;;15.16;37.37;100168.59;4453696;32;33937;-64
2022/04/15 07:08:39;;;;;;;12.57;6.25;;;;;;;15.43;36.87;100173.81;4453011;32;33629;-64
2022/04/15 07:11:07;;;;;;;16.00;6.97;;;;;;;15.45;37.23;100167.81;4451951;32;34261;-64
2022/04/15 07:13:38;;;;;;;14.93;6.62;;;;;;;15.94;35.64;100176.25;4439578;32;33321;-61
2022/04/15 07:16:06;;;;;;;10.35;6.10;;;;;;;16.27;35.56;100171.09;4450885;32;33937;-62
2022/04/15 07:18:34;;;;;;;13.10;7.40;;;;;;;16.26;35.11;100174.56;4452736;32;33917;-65
2022/04/15 07:21:02;;;;;;;12.75;7.10;;;;;;;15.75;36.38;100174.81;4452715;32;33679;-65
2022/04/15 07:23:29;;;;;;;17.40;7.62;;;;;;;15.14;36.29;100173.75;4454597;32;33170;-65
2022/04/15 07:25:57;;;;;;;16.00;6.90;;;;;;;14.96;35.30;100174.06;4451622;32;33902;-64
2022/04/15 07:28:25;;;;;;;12.10;6.80;;;;;;;16.41;34.97;100178.44;4451333;32;32573;-63
2022/04/15 07:30:52;;;;;;;23.92;7.35;;;;;;;15.44;35.84;100179.06;4452344;32;33626;-63
2022/04/15 07:33:20;;;;;;;11.65;6.10;;;;;;;16.54;34.72;100180.53;4452277;32;33452;-61
2022/04/15 07:35:47;;;;;;;14.35;7.10;;;;;;;16.50;36.30;100184.78;4452038;32;33983;-64
2022/04/15 07:38:15;;;;;;;11.02;6.53;;;;;;;17.03;37.38;100187.03;4435721;32;32474;-61
2022/04/15 07:40:43;;;;;;;11.48;6.37;;;;;;;16.88;35.11;100182.34;4447735;32;32712;-62
2022/04/15 07:43:11;;;;;;;10.88;6.78;;;;;;;16.48;33.79;100186.47;4450994;32;33316;-61
2022/04/15 07:45:41;;;;;;;11.07;6.40;;;;;;;16.53;34.79;100189.19;4439500;32;33579;-64
2022/04/15 07:48:10;;;;;;;10.10;6.20;;;;;;;15.89;34.40;100197.00;4434420;32;34457;-63
2022/04/15 07:50:39;;;;;;;9.45;6.35;;;;;;;16.33;34.34;100198.25;4450146;32;33752;-63
2022/04/15 07:53:06;;;;;;;13.07;7.03;;;;;;;17.25;33.11;100205.91;4447357;32;33410;-62
2022/04/15 07:55:33;;;;;;;10.40;6.75;;;;;;;17.32;32.97;100205.19;4445353;32;33908;-62
2022/04/15 07:58:01;;;;;;;13.13;7.03;;;;;;;17.51;35.01;100206.50;4452664;32;33985;-63
2022/04/15 08:00:34;;;;;;;10.55;6.28;;;;;;;17.91;32.54;100201.31;4450787;32;34078;-61
2022/04/15 08:03:02;;;;;;;15.13;6.53;;;;;;;17.84;31.03;100210.78;4452602;32;34348;-63
2022/04/15 08:05:29;;;;;;;12.60;6.22;;;;;;;17.84;32.34;100205.53;4452608;32;34451;-63
2022/04/15 08:07:57;;;;;;;12.50;5.68;;;;;;;17.22;32.69;100208.44;4453327;32;33631;-61
2022/04/15 08:10:24;;;;;;;11.35;5.32;;;;;;;17.58;30.46;100213.66;4450526;32;34577;-63
2022/04/15 08:12:52;;;;;;;9.23;5.10;;;;;;;17.71;29.50;100209.56;4451200;32;33534;-61
2022/04/15 08:15:21;;;;;;;11.32;7.20;;;;;;;18.27;29.23;100202.09;4436672;32;34022;-61
2022/04/15 08:17:48;;;;;;;13.45;5.70;;;;;;;18.17;29.01;100197.47;4450463;32;33938;-61
2022/04/15 08:20:16;;;;;;;10.85;5.97;;;;;;;17.90;29.69;100199.53;4447655;32;33505;-62
2022/04/15 08:22:43;;;;;;;10.05;6.20;;;;;;;17.99;30.82;100191.88;4451560;32;33235;-62
2022/04/15 08:25:11;;;;;;;10.88;5.72;;;;;;;18.15;30.55;100193.94;4449724;32;34765;-61
2022/04/15 08:27:38;;;;;;;12.30;6.53;;;;;;;17.85;30.92;100197.72;4437089;32;33488;-62
2022/04/15 08:30:06;;;;;;;11.23;6.00;;;;;;;18.61;30.32;100192.22;4452868;32;33511;-61
2022/04/15 08:32:34;;;;;;;17.83;7.32;;;;;;;19.25;28.98;100194.22;4449069;32;33102;-61
2022/04/15 08:35:11;;;;;;;11.07;6.90;;;;;;;18.86;29.11;100192.69;4431950;32;32333;-61
2022/04/15 08:37:40;;;;;;;12.65;7.80;;;;;;;17.96;29.22;100194.44;4424049;32;34441;-61
2022/04/15 08:40:09;;;;;;;10.32;6.43;;;;;;;18.05;29.52;100186.75;4442154;32;33882;-61
2022/04/15 08:42:36;;;;;;;13.18;6.60;;;;;;;18.45;31.24;100192.81;4438254;32;33407;-62
2022/04/15 08:45:06;;;;;;;12.37;7.28;;;;;;;18.58;29.25;100181.69;4435295;32;34636;-62
2022/04/15 08:47:37;;;;;;;13.27;8.95;;;;;;;18.28;28.91;100177.62;4443822;32;33534;-62
2022/04/15 08:50:12;;;;;;;15.15;7.57;;;;;;;19.18;29.55;100182.75;4449114;32;33510;-62
2022/04/15 08:52:40;;;;;;;14.10;7.30;;;;;;;18.24;29.62;100186.28;4450246;32;33000;-61
2022/04/15 08:55:08;;;;;;;15.35;8.32;;;;;;;18.76;30.16;100182.87;4451364;32;34538;-61
2022/04/15 08:57:36;;;;;;;17.12;10.23;;;;;;;18.56;29.68;100172.91;4450389;32;34549;-61
2022/04/15 09:00:05;;;;;;;15.25;8.98;;;;;;;18.47;29.76;100178.84;4435568;32;33606;-61
2022/04/15 09:02:37;;;;;;;12.90;8.00;;;;;;;18.72;30.12;100183.69;4436177;32;33452;-61
2022/04/15 09:05:10;;;;;;;14.57;8.07;;;;;;;19.13;29.28;100170.41;4435591;32;34015;-61
2022/04/15 09:07:38;;;;;;;13.40;8.45;;;;;;;19.04;28.96;100174.66;4448873;32;34446;-62
2022/04/15 09:10:07;;;;;;;13.07;7.43;;;;;;;19.33;29.11;100174.19;4436174;32;32531;-61
2022/04/15 09:12:35;;;;;;;14.25;7.05;;;;;;;19.03;30.55;100172.87;4447100;32;31949;-62
2022/04/15 09:15:06;;;;;;;12.60;7.53;;;;;;;19.38;29.95;100163.78;4448423;32;34867;-63
2022/04/15 09:17:47;;;;;;;11.73;6.93;;;;;;;18.38;31.06;100164.69;4445214;32;33627;-62
2022/04/15 09:20:16;;;;;;;14.43;6.85;;;;;;;19.10;30.02;100159.84;4437698;32;33742;-62
2022/04/15 09:22:43;;;;;;;16.15;5.68;;;;;;;19.64;29.78;100164.12;4448231;32;33194;-62
2022/04/15 09:25:11;;;;;;;12.80;5.68;;;;;;;19.97;27.90;100162.84;4447194;32;34081;-62
2022/04/15 09:27:38;;;;;;;9.20;5.53;;;;;;;19.64;28.76;100169.37;4450619;32;33681;-62
2022/04/15 09:30:06;;;;;;;10.93;5.75;;;;;;;18.88;28.59;100159.50;4448109;32;33893;-62
2022/04/15 09:32:34;;;;;;;11.02;5.32;;;;;;;19.05;29.63;100168.53;4433888;32;33870;-62
2022/04/15 09:35:05;;;;;;;11.07;5.53;;;;;;;18.23;30.86;100163.56;4451110;32;34334;-62
2022/04/15 09:37:43;;;;;;;11.52;5.50;;;;;;;18.55;30.66;100178.12;4447000;32;33967;-61
2022/04/15 09:40:22;;;;;;;9.98;5.57;;;;;;;18.53;30.66;100167.59;4444572;32;34012;-62
2022/04/15 09:42:50;;;;;;;11.63;5.65;;;;;;;18.61;31.85;100168.59;4435915;32;34106;-62
2022/04/15 09:45:20;;;;;;;11.45;6.40;;;;;;;18.65;31.90;100161.69;4446409;32;33748;-62
2022/04/15 09:47:52;;;;;;;12.25;5.82;;;;;;;18.75;30.94;100166.22;4442771;32;33027;-62
2022/04/15 09:50:35;;;;;;;9.05;5.70;;;;;;;18.50;32.61;100175.38;4449214;32;33749;-62
2022/04/15 09:53:07;;;;;;;14.23;6.62;;;;;;;19.15;31.02;100163.44;4435011;32;33190;-62
2022/04/15 09:55:36;;;;;;;11.57;6.18;;;;;;;19.26;30.08;100164.47;4451390;32;33961;-62
2022/04/15 09:58:08;;;;;;;12.77;5.70;;;;;;;18.66;31.10;100164.34;4450988;32;33761;-62
2022/04/15 10:00:37;;;;;;;16.70;8.38;;;;;;;18.59;30.77;100165.06;4435363;32;33648;-62
2022/04/15 10:03:14;;;;;;;15.75;6.43;;;;;;;18.22;30.36;100163.50;4451909;32;34131;-61
2022/04/15 10:05:42;;;;;;;10.95;5.78;;;;;;;18.39;30.25;100142.88;4435614;32;33640;-62
2022/04/15 10:08:10;;;;;;;10.88;5.62;;;;;;;18.50;30.11;100141.28;4437610;32;34629;-62
2022/04/15 10:10:38;;;;;;;10.32;5.30;;;;;;;18.01;30.31;100138.63;4435038;32;33176;-62
2022/04/15 10:13:06;;;;;;;8.18;4.57;;;;;;;19.00;29.29;100133.41;4433688;32;33725;-62
2022/04/15 10:15:38;;;;;;;11.63;4.20;;;;;;;19.57;28.16;100143.91;4433189;32;32970;-62
2022/04/15 10:18:08;;;;;;;7.78;3.92;;;;;;;19.27;26.55;100142.59;4435189;32;34572;-62
2022/04/15 10:20:39;;;;;;;8.00;4.10;;;;;;;19.56;26.44;100142.13;4451210;32;34075;-62
2022/04/15 10:23:13;;;;;;;13.02;4.45;;;;;;;19.73;26.32;100145.91;4437933;32;33390;-62
2022/04/15 10:25:46;;;;;;;;;;;;;;;20.13;25.20;100135.00;4437495;32;33133;-62
2022/04/15 10:28:17;;;;;;;7.15;3.90;;;;;;;20.82;25.50;100151.47;4435893;32;33557;-62
2022/04/15 10:30:53;;;;;;;7.45;4.05;;;;;;;20.97;24.86;100162.16;4449546;32;34714;-62
2022/04/15 10:33:29;;;;;;;9.25;3.87;;;;;;;20.64;24.60;100153.97;4448387;32;33721;-62
2022/04/15 10:36:10;;;;;;;8.80;4.12;;;;;;;21.16;24.94;100157.03;4451293;32;33669;-62
2022/04/15 10:38:46;;;;;;;9.27;3.90;;;;;;;21.28;24.35;100158.87;4448838;32;33830;-62
2022/04/15 10:41:16;;;;;;;9.50;3.85;;;;;;;20.64;25.25;100161.88;4421376;32;34359;-62
2022/04/15 10:44:00;;;;;;;15.55;4.53;;;;;;;20.60;24.25;100171.47;4449928;32;33056;-62
2022/04/15 10:46:37;;;;;;;9.85;4.20;;;;;;;21.37;22.23;100170.34;4451024;32;34545;-62
2022/04/15 10:49:21;;;;;;;62.17;48.92;;;;;;;21.52;23.14;100166.97;4446595;32;33710;-62
2022/04/15 10:51:57;;;;;;;;;;;;;;;20.34;27.99;100168.53;4451713;32;32906;-63
2022/04/15 10:54:29;;;;;;;17.48;14.43;;;;;;;19.91;29.24;100168.03;4451345;32;33381;-63
2022/04/15 10:56:59;;;;;;;15.30;12.35;;;;;;;20.40;30.06;100163.34;4435534;32;34801;-62
2022/04/15 11:02:45;;;;;;;13.35;10.15;;;;;;;20.43;29.68;100158.09;4436818;32;33541;-62
2022/04/15 11:05:14;;;;;;;20.35;14.63;;;;;;;19.99;28.52;100153.22;4450945;32;33060;-62
2022/04/15 11:07:58;;;;;;;380.58;244.20;;;;;;;19.41;29.25;100156.84;4448109;32;33974;-62
2022/04/15 11:10:48;;;;;;;81.28;50.30;;;;;;;19.97;29.08;100160.22;4434751;32;34595;-62
2022/04/15 11:13:40;;;;;;;119.45;78.32;;;;;;;20.41;29.71;100159.84;4452174;32;33648;-62
2022/04/15 11:16:12;;;;;;;53.40;37.42;;;;;;;20.19;30.06;100156.97;4436876;32;33801;-62
2022/04/15 11:18:42;;;;;;;19.77;10.38;;;;;;;19.64;29.90;100158.87;4449796;32;35624;-62
2022/04/15 11:21:29;;;;;;;12.07;5.25;;;;;;;19.79;31.05;100161.75;4449543;32;33216;-62
2022/04/15 11:23:59;;;;;;;10.52;5.65;;;;;;;19.48;32.12;100167.41;4437288;32;34276;-62
2022/04/15 11:26:27;;;;;;;9.52;5.70;;;;;;;19.21;32.70;100168.78;4433241;32;31831;-62
2022/04/15 11:28:57;;;;;;;12.02;6.30;;;;;;;18.75;32.81;100181.09;4447928;32;33913;-62
2022/04/15 11:31:30;;;;;;;10.77;6.12;;;;;;;18.77;32.11;100176.75;4442826;32;33962;-62
2022/04/15 11:34:23;;;;;;;12.68;7.28;;;;;;;19.10;32.27;100165.09;4448433;32;33693;-62
2022/04/15 11:36:56;;;;;;;16.15;11.68;;;;;;;18.80;33.36;100172.47;4436617;32;32749;-62
2022/04/15 11:39:24;;;;;;;10.68;5.60;;;;;;;18.65;32.46;100178.28;4449861;32;34057;-62